Accueil
METAR-TAF:

METAR-TAF

Aéroports :

Bergerac, France

Aéroport de Bergerac-Dordogne-Périgord

latitude: 44-49N, longitude: 000-31E, altitude: 51 m

Observation

Le bulletin a été fait il y a 27 minutes, à 10:00 UTC
Vent calme
Température 2°C
Humidité 87%
Pression 1011 hPa
Visibilité: 5000 m
brume

METAR: LFBE 241000Z AUTO 00000KT 5000 BR NSC 02/M00 Q1011 NOSIG

Heure: 11:27 (10:27 UTC)

Prévision

Le bulletin a été fait il y a 2 heures et 15 minutes, à 08:12 UTC
Prévision valable du 24 à 08 UTC au 25 à 06 UTC
Vent 3 kt de est/nord-est
Visibilité: 7000 m
Nuages épars à une hauteur de 3500 ft
Temporairement
du 24 à 08 UTC au 24 à 10 UTC
Visibilité: 4000 m
brume
Probabilité 40%
du 25 à 02 UTC au 25 à 06 UTC
Visibilité: 1500 m
bancs de brouillard

TAF: LFBE 240812Z 2408/2506 07003KT 7000 SCT035 TEMPO 2408/2410 4000 BR PROB40 2502/2506 1500 BCFG

Observations et prévisions météorologiques de plus de 4000 aéroports (messages METAR et TAF).

Les stations disponibles sont représentées par des disques jaunes et rouges sur la carte.

Passer la souris dessus pour voir le nom de la station.

Cliquer dessus pour voir les observations et prévisions météorologiques.

Pour changer de carte: cliquez sur les boutons verts avec une croix noire pour zoomer, sur le bouton vert avec un tiret pour effectuer un zoom arrière, ou sur les flèches vertes pour les cartes adjacentes.


METAR-TAF: